sensor_id;sensor_type;location;lat;lon;timestamp;temperature;humidity
11848;DHT22;5983;49.966;8.052;2023-04-24T00:01:02;11.90;99.90
11848;DHT22;5983;49.966;8.052;2023-04-24T00:03:28;11.90;99.90
11848;DHT22;5983;49.966;8.052;2023-04-24T00:05:55;11.80;99.90
11848;DHT22;5983;49.966;8.052;2023-04-24T00:08:24;11.80;99.90
11848;DHT22;5983;49.966;8.052;2023-04-24T00:10:51;11.70;99.90
11848;DHT22;5983;49.966;8.052;2023-04-24T00:13:18;11.70;99.90
11848;DHT22;5983;49.966;8.052;2023-04-24T00:15:45;11.70;99.90
11848;DHT22;5983;49.966;8.052;2023-04-24T00:18:13;11.60;99.90
11848;DHT22;5983;49.966;8.052;2023-04-24T00:20:40;11.70;99.90
11848;DHT22;5983;49.966;8.052;2023-04-24T00:23:08;11.70;99.90
11848;DHT22;5983;49.966;8.052;2023-04-24T00:25:35;11.70;99.90
11848;DHT22;5983;49.966;8.052;2023-04-24T00:28:02;11.70;99.90
11848;DHT22;5983;49.966;8.052;2023-04-24T00:30:29;11.60;99.90
11848;DHT22;5983;49.966;8.052;2023-04-24T00:32:55;11.60;99.90
11848;DHT22;5983;49.966;8.052;2023-04-24T00:35:24;11.60;99.90
11848;DHT22;5983;49.966;8.052;2023-04-24T00:37:51;11.60;99.90
11848;DHT22;5983;49.966;8.052;2023-04-24T00:40:17;11.60;99.90
11848;DHT22;5983;49.966;8.052;2023-04-24T00:42:44;11.60;99.90
11848;DHT22;5983;49.966;8.052;2023-04-24T00:45:11;11.60;99.90
11848;DHT22;5983;49.966;8.052;2023-04-24T00:47:39;11.60;99.90
11848;DHT22;5983;49.966;8.052;2023-04-24T00:50:06;11.50;99.90
11848;DHT22;5983;49.966;8.052;2023-04-24T00:52:35;11.60;99.90
11848;DHT22;5983;49.966;8.052;2023-04-24T00:55:02;11.50;99.90
11848;DHT22;5983;49.966;8.052;2023-04-24T00:57:29;11.50;99.90
11848;DHT22;5983;49.966;8.052;2023-04-24T00:59:56;11.50;99.90
11848;DHT22;5983;49.966;8.052;2023-04-24T01:02:24;11.50;99.90
11848;DHT22;5983;49.966;8.052;2023-04-24T01:04:51;11.50;99.90
11848;DHT22;5983;49.966;8.052;2023-04-24T01:07:19;11.60;99.90
11848;DHT22;5983;49.966;8.052;2023-04-24T01:09:47;11.60;99.90
11848;DHT22;5983;49.966;8.052;2023-04-24T01:12:16;11.50;99.90
11848;DHT22;5983;49.966;8.052;2023-04-24T01:14:43;11.60;99.90
11848;DHT22;5983;49.966;8.052;2023-04-24T01:17:10;11.60;99.90
11848;DHT22;5983;49.966;8.052;2023-04-24T01:19:37;11.70;99.90
11848;DHT22;5983;49.966;8.052;2023-04-24T01:22:09;11.70;99.90
11848;DHT22;5983;49.966;8.052;2023-04-24T01:24:37;11.70;99.90
11848;DHT22;5983;49.966;8.052;2023-04-24T01:27:04;11.70;99.90
11848;DHT22;5983;49.966;8.052;2023-04-24T01:29:31;11.70;99.90
11848;DHT22;5983;49.966;8.052;2023-04-24T01:31:58;11.80;99.90
11848;DHT22;5983;49.966;8.052;2023-04-24T01:34:25;11.90;99.90
11848;DHT22;5983;49.966;8.052;2023-04-24T01:36:52;11.90;99.90
11848;DHT22;5983;49.966;8.052;2023-04-24T01:39:20;11.90;99.90
11848;DHT22;5983;49.966;8.052;2023-04-24T01:41:48;11.90;99.90
11848;DHT22;5983;49.966;8.052;2023-04-24T01:44:15;11.90;99.90
11848;DHT22;5983;49.966;8.052;2023-04-24T01:46:43;11.90;99.90
11848;DHT22;5983;49.966;8.052;2023-04-24T01:49:10;11.90;99.90
11848;DHT22;5983;49.966;8.052;2023-04-24T01:51:37;11.90;99.90
11848;DHT22;5983;49.966;8.052;2023-04-24T01:54:04;11.90;99.90
11848;DHT22;5983;49.966;8.052;2023-04-24T01:56:33;11.90;99.90
11848;DHT22;5983;49.966;8.052;2023-04-24T01:59:00;11.90;99.90
11848;DHT22;5983;49.966;8.052;2023-04-24T02:01:32;11.90;99.90
11848;DHT22;5983;49.966;8.052;2023-04-24T02:04:01;12.00;99.90
11848;DHT22;5983;49.966;8.052;2023-04-24T02:06:27;12.00;99.90
11848;DHT22;5983;49.966;8.052;2023-04-24T02:08:54;12.00;99.90
11848;DHT22;5983;49.966;8.052;2023-04-24T02:11:21;12.00;99.90
11848;DHT22;5983;49.966;8.052;2023-04-24T02:13:49;12.00;99.90
11848;DHT22;5983;49.966;8.052;2023-04-24T02:16:17;12.00;99.90
11848;DHT22;5983;49.966;8.052;2023-04-24T02:18:44;11.90;99.90
11848;DHT22;5983;49.966;8.052;2023-04-24T02:21:10;12.00;99.90
11848;DHT22;5983;49.966;8.052;2023-04-24T02:23:37;12.00;99.90
11848;DHT22;5983;49.966;8.052;2023-04-24T02:26:04;12.00;99.90
11848;DHT22;5983;49.966;8.052;2023-04-24T02:28:31;12.00;99.90
11848;DHT22;5983;49.966;8.052;2023-04-24T02:30:59;12.00;99.90
11848;DHT22;5983;49.966;8.052;2023-04-24T02:33:26;12.00;99.90
11848;DHT22;5983;49.966;8.052;2023-04-24T02:35:52;12.00;99.90
11848;DHT22;5983;49.966;8.052;2023-04-24T02:38:19;12.00;99.90
11848;DHT22;5983;49.966;8.052;2023-04-24T02:40:46;12.00;99.90
11848;DHT22;5983;49.966;8.052;2023-04-24T02:43:13;12.00;99.90
11848;DHT22;5983;49.966;8.052;2023-04-24T02:45:39;12.00;99.90
11848;DHT22;5983;49.966;8.052;2023-04-24T02:48:07;12.00;99.90
11848;DHT22;5983;49.966;8.052;2023-04-24T02:50:34;12.00;99.90
11848;DHT22;5983;49.966;8.052;2023-04-24T02:53:01;12.00;99.90
11848;DHT22;5983;49.966;8.052;2023-04-24T02:55:28;12.00;99.90
11848;DHT22;5983;49.966;8.052;2023-04-24T02:57:55;12.00;99.90
11848;DHT22;5983;49.966;8.052;2023-04-24T03:00:22;12.00;99.90
11848;DHT22;5983;49.966;8.052;2023-04-24T03:02:49;12.00;99.90
11848;DHT22;5983;49.966;8.052;2023-04-24T03:05:17;11.90;99.90
11848;DHT22;5983;49.966;8.052;2023-04-24T03:07:44;11.90;99.90
11848;DHT22;5983;49.966;8.052;2023-04-24T03:10:10;11.90;99.90
11848;DHT22;5983;49.966;8.052;2023-04-24T03:12:37;11.90;99.90
11848;DHT22;5983;49.966;8.052;2023-04-24T03:15:04;11.90;99.90
11848;DHT22;5983;49.966;8.052;2023-04-24T03:17:32;11.90;99.90
11848;DHT22;5983;49.966;8.052;2023-04-24T03:19:58;11.90;99.90
11848;DHT22;5983;49.966;8.052;2023-04-24T03:22:26;11.90;99.90
11848;DHT22;5983;49.966;8.052;2023-04-24T03:24:53;11.90;99.90
11848;DHT22;5983;49.966;8.052;2023-04-24T03:27:22;11.90;99.90
11848;DHT22;5983;49.966;8.052;2023-04-24T03:29:48;11.90;99.90
11848;DHT22;5983;49.966;8.052;2023-04-24T03:32:19;11.90;99.90
11848;DHT22;5983;49.966;8.052;2023-04-24T03:34:45;11.90;99.90
11848;DHT22;5983;49.966;8.052;2023-04-24T03:37:12;11.90;99.90
11848;DHT22;5983;49.966;8.052;2023-04-24T03:39:40;11.80;99.90
11848;DHT22;5983;49.966;8.052;2023-04-24T03:42:07;11.80;99.90
11848;DHT22;5983;49.966;8.052;2023-04-24T03:44:34;11.80;99.90
11848;DHT22;5983;49.966;8.052;2023-04-24T03:47:01;11.70;99.90
11848;DHT22;5983;49.966;8.052;2023-04-24T03:49:27;11.70;99.90
11848;DHT22;5983;49.966;8.052;2023-04-24T03:51:54;11.60;99.90
11848;DHT22;5983;49.966;8.052;2023-04-24T03:54:21;11.60;99.90
11848;DHT22;5983;49.966;8.052;2023-04-24T03:56:49;11.50;99.90
11848;DHT22;5983;49.966;8.052;2023-04-24T03:59:16;11.40;99.90
11848;DHT22;5983;49.966;8.052;2023-04-24T04:01:42;11.30;99.90
11848;DHT22;5983;49.966;8.052;2023-04-24T04:04:10;11.20;99.90
11848;DHT22;5983;49.966;8.052;2023-04-24T04:06:37;11.10;99.90
11848;DHT22;5983;49.966;8.052;2023-04-24T04:09:04;11.00;99.90
11848;DHT22;5983;49.966;8.052;2023-04-24T04:11:31;11.00;99.90
11848;DHT22;5983;49.966;8.052;2023-04-24T04:13:59;10.90;99.90
11848;DHT22;5983;49.966;8.052;2023-04-24T04:16:25;10.80;99.90
11848;DHT22;5983;49.966;8.052;2023-04-24T04:18:52;10.70;99.90
11848;DHT22;5983;49.966;8.052;2023-04-24T04:21:19;10.60;99.90
11848;DHT22;5983;49.966;8.052;2023-04-24T04:23:46;10.50;99.90
11848;DHT22;5983;49.966;8.052;2023-04-24T04:26:13;10.50;99.90
11848;DHT22;5983;49.966;8.052;2023-04-24T04:28:40;10.50;99.90
11848;DHT22;5983;49.966;8.052;2023-04-24T04:31:08;10.50;99.90
11848;DHT22;5983;49.966;8.052;2023-04-24T04:33:35;10.40;99.90
11848;DHT22;5983;49.966;8.052;2023-04-24T04:36:03;10.40;99.90
11848;DHT22;5983;49.966;8.052;2023-04-24T04:38:30;10.40;99.90
11848;DHT22;5983;49.966;8.052;2023-04-24T04:40:57;10.40;99.90
11848;DHT22;5983;49.966;8.052;2023-04-24T04:43:24;10.30;99.90
11848;DHT22;5983;49.966;8.052;2023-04-24T04:45:51;10.30;99.90
11848;DHT22;5983;49.966;8.052;2023-04-24T04:48:21;10.20;99.90
11848;DHT22;5983;49.966;8.052;2023-04-24T04:50:48;10.20;99.90
11848;DHT22;5983;49.966;8.052;2023-04-24T04:53:14;10.20;99.90
11848;DHT22;5983;49.966;8.052;2023-04-24T04:55:41;10.20;99.90
11848;DHT22;5983;49.966;8.052;2023-04-24T04:58:08;10.10;99.90
11848;DHT22;5983;49.966;8.052;2023-04-24T05:00:35;10.20;99.90
11848;DHT22;5983;49.966;8.052;2023-04-24T05:03:02;10.20;99.90
11848;DHT22;5983;49.966;8.052;2023-04-24T05:05:30;10.10;99.90
11848;DHT22;5983;49.966;8.052;2023-04-24T05:07:57;10.10;99.90
11848;DHT22;5983;49.966;8.052;2023-04-24T05:10:24;10.10;99.90
11848;DHT22;5983;49.966;8.052;2023-04-24T05:12:51;10.20;99.90
11848;DHT22;5983;49.966;8.052;2023-04-24T05:15:17;10.20;99.90
11848;DHT22;5983;49.966;8.052;2023-04-24T05:17:44;10.30;99.90
11848;DHT22;5983;49.966;8.052;2023-04-24T05:20:11;10.30;99.90
11848;DHT22;5983;49.966;8.052;2023-04-24T05:22:39;10.30;99.90
11848;DHT22;5983;49.966;8.052;2023-04-24T05:25:06;10.40;99.90
11848;DHT22;5983;49.966;8.052;2023-04-24T05:27:33;10.40;99.90
11848;DHT22;5983;49.966;8.052;2023-04-24T05:30:00;10.50;99.90
11848;DHT22;5983;49.966;8.052;2023-04-24T05:32:27;10.50;99.90
11848;DHT22;5983;49.966;8.052;2023-04-24T05:34:54;10.50;99.90
11848;DHT22;5983;49.966;8.052;2023-04-24T05:37:20;10.50;99.90
11848;DHT22;5983;49.966;8.052;2023-04-24T05:39:48;10.60;99.90
11848;DHT22;5983;49.966;8.052;2023-04-24T05:42:15;10.70;99.90
11848;DHT22;5983;49.966;8.052;2023-04-24T05:44:42;10.90;99.90
11848;DHT22;5983;49.966;8.052;2023-04-24T05:47:08;11.00;99.90
11848;DHT22;5983;49.966;8.052;2023-04-24T05:49:35;11.00;99.90
11848;DHT22;5983;49.966;8.052;2023-04-24T05:52:02;11.10;99.90
11848;DHT22;5983;49.966;8.052;2023-04-24T05:54:30;11.10;99.90
11848;DHT22;5983;49.966;8.052;2023-04-24T05:56:58;11.00;99.90
11848;DHT22;5983;49.966;8.052;2023-04-24T05:59:27;11.10;99.90
11848;DHT22;5983;49.966;8.052;2023-04-24T06:01:54;11.10;99.90
11848;DHT22;5983;49.966;8.052;2023-04-24T06:04:21;11.20;99.90
11848;DHT22;5983;49.966;8.052;2023-04-24T06:06:48;11.20;99.90
11848;DHT22;5983;49.966;8.052;2023-04-24T06:09:20;11.20;99.90
11848;DHT22;5983;49.966;8.052;2023-04-24T06:11:47;11.20;99.90
11848;DHT22;5983;49.966;8.052;2023-04-24T06:14:16;11.20;99.90
11848;DHT22;5983;49.966;8.052;2023-04-24T06:16:43;11.30;99.90
11848;DHT22;5983;49.966;8.052;2023-04-24T06:19:09;11.40;99.90
11848;DHT22;5983;49.966;8.052;2023-04-24T06:21:36;11.50;99.90
11848;DHT22;5983;49.966;8.052;2023-04-24T06:24:03;11.70;99.90
11848;DHT22;5983;49.966;8.052;2023-04-24T06:26:30;11.90;99.90
11848;DHT22;5983;49.966;8.052;2023-04-24T06:28:57;12.10;99.90
11848;DHT22;5983;49.966;8.052;2023-04-24T06:31:26;12.40;99.90
11848;DHT22;5983;49.966;8.052;2023-04-24T06:33:53;12.50;99.90
11848;DHT22;5983;49.966;8.052;2023-04-24T06:36:20;12.40;99.90
11848;DHT22;5983;49.966;8.052;2023-04-24T06:38:47;12.50;99.90
11848;DHT22;5983;49.966;8.052;2023-04-24T06:41:13;12.60;99.90
11848;DHT22;5983;49.966;8.052;2023-04-24T06:43:40;12.70;99.90
11848;DHT22;5983;49.966;8.052;2023-04-24T06:46:07;12.70;99.90
11848;DHT22;5983;49.966;8.052;2023-04-24T06:48:35;12.90;99.90
11848;DHT22;5983;49.966;8.052;2023-04-24T06:51:02;13.10;99.90
11848;DHT22;5983;49.966;8.052;2023-04-24T06:53:29;13.20;99.90
11848;DHT22;5983;49.966;8.052;2023-04-24T06:55:55;13.40;99.90
11848;DHT22;5983;49.966;8.052;2023-04-24T06:58:22;13.60;99.90
11848;DHT22;5983;49.966;8.052;2023-04-24T07:00:50;13.70;99.90
11848;DHT22;5983;49.966;8.052;2023-04-24T07:03:17;13.70;99.90
11848;DHT22;5983;49.966;8.052;2023-04-24T07:05:45;13.70;99.90
11848;DHT22;5983;49.966;8.052;2023-04-24T07:08:12;13.70;99.90
11848;DHT22;5983;49.966;8.052;2023-04-24T07:10:39;13.90;99.90
11848;DHT22;5983;49.966;8.052;2023-04-24T07:13:06;14.00;99.90
11848;DHT22;5983;49.966;8.052;2023-04-24T07:15:33;14.10;99.90
11848;DHT22;5983;49.966;8.052;2023-04-24T07:18:00;14.10;99.90
11848;DHT22;5983;49.966;8.052;2023-04-24T07:20:27;14.40;99.90
11848;DHT22;5983;49.966;8.052;2023-04-24T07:22:55;14.60;99.90
11848;DHT22;5983;49.966;8.052;2023-04-24T07:25:22;14.60;99.90
11848;DHT22;5983;49.966;8.052;2023-04-24T07:27:48;14.60;99.90
11848;DHT22;5983;49.966;8.052;2023-04-24T07:30:15;14.40;99.90
11848;DHT22;5983;49.966;8.052;2023-04-24T07:32:42;14.10;99.90
11848;DHT22;5983;49.966;8.052;2023-04-24T07:35:09;14.10;99.90
11848;DHT22;5983;49.966;8.052;2023-04-24T07:37:35;14.00;99.90
11848;DHT22;5983;49.966;8.052;2023-04-24T07:40:04;14.00;99.90
11848;DHT22;5983;49.966;8.052;2023-04-24T07:42:31;13.90;99.90
11848;DHT22;5983;49.966;8.052;2023-04-24T07:44:59;14.10;99.90
11848;DHT22;5983;49.966;8.052;2023-04-24T07:47:26;14.40;99.90
11848;DHT22;5983;49.966;8.052;2023-04-24T07:49:53;14.70;99.90
11848;DHT22;5983;49.966;8.052;2023-04-24T07:52:20;15.00;99.90
11848;DHT22;5983;49.966;8.052;2023-04-24T07:54:46;15.30;99.90
11848;DHT22;5983;49.966;8.052;2023-04-24T07:57:16;15.50;99.90
11848;DHT22;5983;49.966;8.052;2023-04-24T07:59:43;15.60;99.90
11848;DHT22;5983;49.966;8.052;2023-04-24T08:02:09;15.70;99.90
11848;DHT22;5983;49.966;8.052;2023-04-24T08:04:37;15.70;99.90
11848;DHT22;5983;49.966;8.052;2023-04-24T08:07:03;15.90;99.90
11848;DHT22;5983;49.966;8.052;2023-04-24T08:09:30;15.90;99.90
11848;DHT22;5983;49.966;8.052;2023-04-24T08:11:57;15.90;99.90
11848;DHT22;5983;49.966;8.052;2023-04-24T08:14:25;15.80;99.90
11848;DHT22;5983;49.966;8.052;2023-04-24T08:16:53;15.70;99.90
11848;DHT22;5983;49.966;8.052;2023-04-24T08:19:21;15.40;99.90
11848;DHT22;5983;49.966;8.052;2023-04-24T08:21:47;15.30;99.90
11848;DHT22;5983;49.966;8.052;2023-04-24T08:24:14;14.90;99.90
11848;DHT22;5983;49.966;8.052;2023-04-24T08:26:41;14.60;99.90
11848;DHT22;5983;49.966;8.052;2023-04-24T08:29:08;14.40;99.90
11848;DHT22;5983;49.966;8.052;2023-04-24T08:31:37;14.20;99.90
11848;DHT22;5983;49.966;8.052;2023-04-24T08:34:03;13.90;99.90
11848;DHT22;5983;49.966;8.052;2023-04-24T08:36:30;13.80;99.90
11848;DHT22;5983;49.966;8.052;2023-04-24T08:38:58;13.90;99.90
11848;DHT22;5983;49.966;8.052;2023-04-24T08:41:26;14.00;99.90
11848;DHT22;5983;49.966;8.052;2023-04-24T08:43:53;13.90;99.90
11848;DHT22;5983;49.966;8.052;2023-04-24T08:46:23;13.90;99.90
11848;DHT22;5983;49.966;8.052;2023-04-24T08:48:52;14.10;99.90
11848;DHT22;5983;49.966;8.052;2023-04-24T08:51:19;14.40;99.90
11848;DHT22;5983;49.966;8.052;2023-04-24T08:53:46;14.70;99.90
11848;DHT22;5983;49.966;8.052;2023-04-24T08:56:13;14.90;99.90
11848;DHT22;5983;49.966;8.052;2023-04-24T08:58:41;15.10;99.90
11848;DHT22;5983;49.966;8.052;2023-04-24T09:01:09;14.90;99.90
11848;DHT22;5983;49.966;8.052;2023-04-24T09:03:36;14.90;99.90
11848;DHT22;5983;49.966;8.052;2023-04-24T09:06:06;14.90;99.90
11848;DHT22;5983;49.966;8.052;2023-04-24T09:08:34;14.80;99.90
11848;DHT22;5983;49.966;8.052;2023-04-24T09:11:02;14.70;99.90
11848;DHT22;5983;49.966;8.052;2023-04-24T09:13:30;14.70;99.90
11848;DHT22;5983;49.966;8.052;2023-04-24T09:15:58;14.40;99.90
11848;DHT22;5983;49.966;8.052;2023-04-24T09:18:25;14.10;99.90
11848;DHT22;5983;49.966;8.052;2023-04-24T09:20:59;14.00;99.90
11848;DHT22;5983;49.966;8.052;2023-04-24T09:23:29;13.90;99.90
11848;DHT22;5983;49.966;8.052;2023-04-24T09:25:57;14.00;99.90
11848;DHT22;5983;49.966;8.052;2023-04-24T09:28:25;14.20;99.90
11848;DHT22;5983;49.966;8.052;2023-04-24T09:31:06;14.50;99.90
11848;DHT22;5983;49.966;8.052;2023-04-24T09:33:34;14.60;99.90
11848;DHT22;5983;49.966;8.052;2023-04-24T09:36:01;14.60;99.90
11848;DHT22;5983;49.966;8.052;2023-04-24T09:38:33;14.20;99.90
11848;DHT22;5983;49.966;8.052;2023-04-24T09:41:01;14.10;99.90
11848;DHT22;5983;49.966;8.052;2023-04-24T09:43:29;13.70;99.90
11848;DHT22;5983;49.966;8.052;2023-04-24T09:45:56;13.40;99.90
11848;DHT22;5983;49.966;8.052;2023-04-24T09:48:30;13.20;99.90
11848;DHT22;5983;49.966;8.052;2023-04-24T09:50:58;13.20;99.90
11848;DHT22;5983;49.966;8.052;2023-04-24T09:53:26;13.10;99.90
11848;DHT22;5983;49.966;8.052;2023-04-24T09:55:55;13.00;99.90
11848;DHT22;5983;49.966;8.052;2023-04-24T09:58:25;13.00;99.90
11848;DHT22;5983;49.966;8.052;2023-04-24T10:00:53;13.10;99.90
11848;DHT22;5983;49.966;8.052;2023-04-24T10:03:20;13.10;99.90
11848;DHT22;5983;49.966;8.052;2023-04-24T10:05:47;13.10;99.90
11848;DHT22;5983;49.966;8.052;2023-04-24T10:08:14;13.00;99.90
11848;DHT22;5983;49.966;8.052;2023-04-24T10:10:41;12.90;99.90
11848;DHT22;5983;49.966;8.052;2023-04-24T10:13:11;12.90;99.90
11848;DHT22;5983;49.966;8.052;2023-04-24T10:15:39;12.90;99.90
11848;DHT22;5983;49.966;8.052;2023-04-24T10:18:07;12.90;99.90
11848;DHT22;5983;49.966;8.052;2023-04-24T10:20:36;12.90;99.90
11848;DHT22;5983;49.966;8.052;2023-04-24T10:23:04;12.90;99.90
11848;DHT22;5983;49.966;8.052;2023-04-24T10:25:32;12.90;99.90
11848;DHT22;5983;49.966;8.052;2023-04-24T10:28:02;12.90;99.90
11848;DHT22;5983;49.966;8.052;2023-04-24T10:30:31;12.90;99.90
11848;DHT22;5983;49.966;8.052;2023-04-24T10:33:01;12.90;99.90
11848;DHT22;5983;49.966;8.052;2023-04-24T10:35:30;12.90;99.90
11848;DHT22;5983;49.966;8.052;2023-04-24T10:37:58;12.90;99.90
11848;DHT22;5983;49.966;8.052;2023-04-24T10:40:30;12.90;99.90
11848;DHT22;5983;49.966;8.052;2023-04-24T10:42:58;13.00;99.90
11848;DHT22;5983;49.966;8.052;2023-04-24T10:45:25;13.00;99.90
11848;DHT22;5983;49.966;8.052;2023-04-24T10:47:54;12.90;99.90
11848;DHT22;5983;49.966;8.052;2023-04-24T10:50:23;12.80;99.90
11848;DHT22;5983;49.966;8.052;2023-04-24T10:52:51;12.70;99.90
11848;DHT22;5983;49.966;8.052;2023-04-24T10:58:08;12.50;99.90
11848;DHT22;5983;49.966;8.052;2023-04-24T11:00:36;12.60;99.90
11848;DHT22;5983;49.966;8.052;2023-04-24T11:03:05;12.70;99.90
11848;DHT22;5983;49.966;8.052;2023-04-24T11:05:49;12.70;99.90
11848;DHT22;5983;49.966;8.052;2023-04-24T11:08:21;12.80;99.90
11848;DHT22;5983;49.966;8.052;2023-04-24T11:10:56;12.90;99.90
11848;DHT22;5983;49.966;8.052;2023-04-24T11:13:25;12.90;99.90
11848;DHT22;5983;49.966;8.052;2023-04-24T11:18:43;13.00;99.90
11848;DHT22;5983;49.966;8.052;2023-04-24T11:21:18;13.30;99.90
11848;DHT22;5983;49.966;8.052;2023-04-24T11:23:45;13.60;99.90
11848;DHT22;5983;49.966;8.052;2023-04-24T11:26:12;13.80;99.90
11848;DHT22;5983;49.966;8.052;2023-04-24T11:28:48;14.10;99.90
11848;DHT22;5983;49.966;8.052;2023-04-24T11:34:08;14.70;99.90
11848;DHT22;5983;49.966;8.052;2023-04-24T11:36:36;15.50;99.90
11848;DHT22;5983;49.966;8.052;2023-04-24T11:39:03;16.20;99.90
11848;DHT22;5983;49.966;8.052;2023-04-24T11:41:30;16.70;99.90
11848;DHT22;5983;49.966;8.052;2023-04-24T11:43:57;17.20;99.90
11848;DHT22;5983;49.966;8.052;2023-04-24T11:46:26;17.20;99.90
11848;DHT22;5983;49.966;8.052;2023-04-24T11:48:54;17.20;99.90
11848;DHT22;5983;49.966;8.052;2023-04-24T11:51:22;17.20;99.90
11848;DHT22;5983;49.966;8.052;2023-04-24T11:53:48;17.10;99.90
11848;DHT22;5983;49.966;8.052;2023-04-24T11:56:17;17.10;99.90
11848;DHT22;5983;49.966;8.052;2023-04-24T11:58:45;17.00;99.90
11848;DHT22;5983;49.966;8.052;2023-04-24T12:01:12;17.00;99.90
11848;DHT22;5983;49.966;8.052;2023-04-24T12:03:38;16.90;99.90
11848;DHT22;5983;49.966;8.052;2023-04-24T12:06:08;16.90;99.90
11848;DHT22;5983;49.966;8.052;2023-04-24T12:08:38;16.90;99.90
11848;DHT22;5983;49.966;8.052;2023-04-24T12:11:05;16.90;99.90
11848;DHT22;5983;49.966;8.052;2023-04-24T12:13:33;16.80;99.90
11848;DHT22;5983;49.966;8.052;2023-04-24T12:16:01;16.70;99.90
11848;DHT22;5983;49.966;8.052;2023-04-24T12:18:29;16.60;99.90
11848;DHT22;5983;49.966;8.052;2023-04-24T12:23:45;16.70;99.90
11848;DHT22;5983;49.966;8.052;2023-04-24T12:26:12;16.80;99.90
11848;DHT22;5983;49.966;8.052;2023-04-24T12:28:42;16.90;99.90
11848;DHT22;5983;49.966;8.052;2023-04-24T12:31:08;16.80;99.90
11848;DHT22;5983;49.966;8.052;2023-04-24T12:33:35;16.70;99.90
11848;DHT22;5983;49.966;8.052;2023-04-24T12:36:02;16.60;99.90
11848;DHT22;5983;49.966;8.052;2023-04-24T12:38:30;16.50;99.90
11848;DHT22;5983;49.966;8.052;2023-04-24T12:41:07;16.40;99.90
11848;DHT22;5983;49.966;8.052;2023-04-24T12:43:35;16.50;99.90
11848;DHT22;5983;49.966;8.052;2023-04-24T12:46:02;16.50;99.90
11848;DHT22;5983;49.966;8.052;2023-04-24T12:48:30;16.60;99.90
11848;DHT22;5983;49.966;8.052;2023-04-24T12:50:57;16.80;99.90
11848;DHT22;5983;49.966;8.052;2023-04-24T12:53:26;16.80;99.90
11848;DHT22;5983;49.966;8.052;2023-04-24T12:55:55;16.80;99.90
11848;DHT22;5983;49.966;8.052;2023-04-24T12:58:23;16.70;99.90
11848;DHT22;5983;49.966;8.052;2023-04-24T13:00:50;16.40;99.90
11848;DHT22;5983;49.966;8.052;2023-04-24T13:03:17;16.20;99.90
11848;DHT22;5983;49.966;8.052;2023-04-24T13:05:44;15.90;99.90
11848;DHT22;5983;49.966;8.052;2023-04-24T13:08:11;15.60;99.90
11848;DHT22;5983;49.966;8.052;2023-04-24T13:10:39;15.40;99.90
11848;DHT22;5983;49.966;8.052;2023-04-24T13:13:06;15.40;99.90
11848;DHT22;5983;49.966;8.052;2023-04-24T13:15:34;15.50;99.90
11848;DHT22;5983;49.966;8.052;2023-04-24T13:18:01;15.60;99.90
11848;DHT22;5983;49.966;8.052;2023-04-24T13:20:28;16.00;99.90
11848;DHT22;5983;49.966;8.052;2023-04-24T13:22:55;16.50;99.90
11848;DHT22;5983;49.966;8.052;2023-04-24T13:25:22;16.90;99.90
11848;DHT22;5983;49.966;8.052;2023-04-24T13:27:50;17.10;99.90
11848;DHT22;5983;49.966;8.052;2023-04-24T13:30:17;17.30;99.90
11848;DHT22;5983;49.966;8.052;2023-04-24T13:32:45;17.30;99.90
11848;DHT22;5983;49.966;8.052;2023-04-24T13:35:12;17.00;99.90
11848;DHT22;5983;49.966;8.052;2023-04-24T13:37:38;16.60;99.90
11848;DHT22;5983;49.966;8.052;2023-04-24T13:40:06;16.30;99.90
11848;DHT22;5983;49.966;8.052;2023-04-24T13:42:33;16.10;99.90
11848;DHT22;5983;49.966;8.052;2023-04-24T13:45:00;15.80;99.90
11848;DHT22;5983;49.966;8.052;2023-04-24T13:47:27;15.80;99.90
11848;DHT22;5983;49.966;8.052;2023-04-24T13:49:55;15.70;99.90
11848;DHT22;5983;49.966;8.052;2023-04-24T13:52:22;15.80;99.90
11848;DHT22;5983;49.966;8.052;2023-04-24T13:54:48;15.80;99.90
11848;DHT22;5983;49.966;8.052;2023-04-24T13:57:15;15.70;99.90
11848;DHT22;5983;49.966;8.052;2023-04-24T13:59:42;15.60;99.90
11848;DHT22;5983;49.966;8.052;2023-04-24T14:02:10;15.60;99.90
11848;DHT22;5983;49.966;8.052;2023-04-24T14:04:37;15.60;99.90
11848;DHT22;5983;49.966;8.052;2023-04-24T14:07:05;15.60;99.90
11848;DHT22;5983;49.966;8.052;2023-04-24T14:09:33;15.60;99.90
11848;DHT22;5983;49.966;8.052;2023-04-24T14:12:00;15.60;99.90
11848;DHT22;5983;49.966;8.052;2023-04-24T14:14:27;15.60;99.90
11848;DHT22;5983;49.966;8.052;2023-04-24T14:16:55;15.60;99.90
11848;DHT22;5983;49.966;8.052;2023-04-24T14:19:21;15.60;99.90
11848;DHT22;5983;49.966;8.052;2023-04-24T14:21:49;15.60;99.90
11848;DHT22;5983;49.966;8.052;2023-04-24T14:24:17;15.60;99.90
11848;DHT22;5983;49.966;8.052;2023-04-24T14:26:43;15.50;99.90
11848;DHT22;5983;49.966;8.052;2023-04-24T14:29:10;15.40;99.90
11848;DHT22;5983;49.966;8.052;2023-04-24T14:31:37;15.40;99.90
11848;DHT22;5983;49.966;8.052;2023-04-24T14:34:04;15.30;99.90
11848;DHT22;5983;49.966;8.052;2023-04-24T14:36:30;15.20;99.90
11848;DHT22;5983;49.966;8.052;2023-04-24T14:38:57;15.30;99.90
11848;DHT22;5983;49.966;8.052;2023-04-24T14:41:25;15.40;99.90
11848;DHT22;5983;49.966;8.052;2023-04-24T14:43:52;15.50;99.90
11848;DHT22;5983;49.966;8.052;2023-04-24T14:46:19;15.70;99.90
11848;DHT22;5983;49.966;8.052;2023-04-24T14:48:46;15.80;99.90
11848;DHT22;5983;49.966;8.052;2023-04-24T14:51:13;15.90;99.90
11848;DHT22;5983;49.966;8.052;2023-04-24T14:53:40;16.00;99.90
11848;DHT22;5983;49.966;8.052;2023-04-24T14:56:07;16.10;99.90
11848;DHT22;5983;49.966;8.052;2023-04-24T14:58:35;16.10;99.90
11848;DHT22;5983;49.966;8.052;2023-04-24T15:01:02;16.10;99.90
11848;DHT22;5983;49.966;8.052;2023-04-24T15:03:29;16.20;99.90
11848;DHT22;5983;49.966;8.052;2023-04-24T15:05:56;16.30;99.90
11848;DHT22;5983;49.966;8.052;2023-04-24T15:08:22;16.40;99.90
11848;DHT22;5983;49.966;8.052;2023-04-24T15:10:49;16.50;99.90
11848;DHT22;5983;49.966;8.052;2023-04-24T15:13:16;16.50;99.90
11848;DHT22;5983;49.966;8.052;2023-04-24T15:15:44;16.50;99.90
11848;DHT22;5983;49.966;8.052;2023-04-24T15:18:12;16.50;99.90
11848;DHT22;5983;49.966;8.052;2023-04-24T15:20:39;16.50;99.90
11848;DHT22;5983;49.966;8.052;2023-04-24T15:23:07;16.50;99.90
11848;DHT22;5983;49.966;8.052;2023-04-24T15:25:34;16.50;99.90
11848;DHT22;5983;49.966;8.052;2023-04-24T15:28:01;16.40;99.90
11848;DHT22;5983;49.966;8.052;2023-04-24T15:30:28;16.40;99.90
11848;DHT22;5983;49.966;8.052;2023-04-24T15:32:56;16.30;99.90
11848;DHT22;5983;49.966;8.052;2023-04-24T15:35:23;16.20;99.90
11848;DHT22;5983;49.966;8.052;2023-04-24T15:37:50;16.00;99.90
11848;DHT22;5983;49.966;8.052;2023-04-24T15:40:17;15.90;99.90
11848;DHT22;5983;49.966;8.052;2023-04-24T15:42:44;15.80;99.90
11848;DHT22;5983;49.966;8.052;2023-04-24T15:45:11;15.70;99.90
11848;DHT22;5983;49.966;8.052;2023-04-24T15:47:38;15.50;99.90
11848;DHT22;5983;49.966;8.052;2023-04-24T15:50:06;15.40;99.90
11848;DHT22;5983;49.966;8.052;2023-04-24T15:55:57;15.00;99.90
11848;DHT22;5983;49.966;8.052;2023-04-24T15:58:25;14.90;99.90
11848;DHT22;5983;49.966;8.052;2023-04-24T16:00:52;14.90;99.90